sensor_id;sensor_type;location;lat;lon;timestamp;P1;durP1;ratioP1;P2;durP2;ratioP2
16037;SDS011;8123;50.906;6.172;2022-10-31T00:00:50;27.73;;;9.80;;
16037;SDS011;8123;50.906;6.172;2022-10-31T00:03:16;20.50;;;9.63;;
16037;SDS011;8123;50.906;6.172;2022-10-31T00:05:46;37.50;;;12.37;;
16037;SDS011;8123;50.906;6.172;2022-10-31T00:08:14;28.17;;;12.63;;
16037;SDS011;8123;50.906;6.172;2022-10-31T00:10:41;27.93;;;12.70;;
16037;SDS011;8123;50.906;6.172;2022-10-31T00:13:08;29.17;;;11.77;;
16037;SDS011;8123;50.906;6.172;2022-10-31T00:15:35;28.13;;;12.37;;
16037;SDS011;8123;50.906;6.172;2022-10-31T00:18:05;26.47;;;12.53;;
16037;SDS011;8123;50.906;6.172;2022-10-31T00:20:31;27.73;;;12.80;;
16037;SDS011;8123;50.906;6.172;2022-10-31T00:22:58;33.70;;;12.80;;
16037;SDS011;8123;50.906;6.172;2022-10-31T00:25:28;26.87;;;13.30;;
16037;SDS011;8123;50.906;6.172;2022-10-31T00:27:57;37.93;;;15.63;;
16037;SDS011;8123;50.906;6.172;2022-10-31T00:30:22;33.63;;;15.30;;
16037;SDS011;8123;50.906;6.172;2022-10-31T00:32:48;43.80;;;15.47;;
16037;SDS011;8123;50.906;6.172;2022-10-31T00:35:14;30.57;;;16.00;;
16037;SDS011;8123;50.906;6.172;2022-10-31T00:37:40;28.00;;;15.50;;
16037;SDS011;8123;50.906;6.172;2022-10-31T00:40:05;33.90;;;15.80;;
16037;SDS011;8123;50.906;6.172;2022-10-31T00:42:31;25.57;;;15.00;;
16037;SDS011;8123;50.906;6.172;2022-10-31T00:44:57;34.30;;;15.07;;
16037;SDS011;8123;50.906;6.172;2022-10-31T00:47:22;33.43;;;14.70;;
16037;SDS011;8123;50.906;6.172;2022-10-31T00:49:48;49.80;;;16.10;;
16037;SDS011;8123;50.906;6.172;2022-10-31T00:52:14;38.27;;;14.30;;
16037;SDS011;8123;50.906;6.172;2022-10-31T00:54:39;36.00;;;16.47;;
16037;SDS011;8123;50.906;6.172;2022-10-31T00:57:05;33.43;;;16.40;;
16037;SDS011;8123;50.906;6.172;2022-10-31T00:59:30;37.80;;;16.27;;
16037;SDS011;8123;50.906;6.172;2022-10-31T01:01:56;41.17;;;15.63;;
16037;SDS011;8123;50.906;6.172;2022-10-31T01:04:22;42.70;;;17.17;;
16037;SDS011;8123;50.906;6.172;2022-10-31T01:06:47;32.73;;;16.60;;
16037;SDS011;8123;50.906;6.172;2022-10-31T01:09:13;33.90;;;17.40;;
16037;SDS011;8123;50.906;6.172;2022-10-31T01:11:38;38.67;;;17.40;;
16037;SDS011;8123;50.906;6.172;2022-10-31T01:14:04;33.43;;;17.40;;
16037;SDS011;8123;50.906;6.172;2022-10-31T01:16:30;32.80;;;17.63;;
16037;SDS011;8123;50.906;6.172;2022-10-31T01:18:55;47.00;;;18.07;;
16037;SDS011;8123;50.906;6.172;2022-10-31T01:21:22;51.00;;;16.73;;
16037;SDS011;8123;50.906;6.172;2022-10-31T01:23:50;37.43;;;17.30;;
16037;SDS011;8123;50.906;6.172;2022-10-31T01:26:18;39.57;;;16.73;;
16037;SDS011;8123;50.906;6.172;2022-10-31T01:29:05;35.23;;;17.30;;
16037;SDS011;8123;50.906;6.172;2022-10-31T01:31:37;35.13;;;16.03;;
16037;SDS011;8123;50.906;6.172;2022-10-31T01:34:04;36.33;;;18.00;;
16037;SDS011;8123;50.906;6.172;2022-10-31T01:36:35;33.63;;;17.80;;
16037;SDS011;8123;50.906;6.172;2022-10-31T01:39:06;41.30;;;17.50;;
16037;SDS011;8123;50.906;6.172;2022-10-31T01:41:35;37.23;;;15.50;;
16037;SDS011;8123;50.906;6.172;2022-10-31T01:46:44;30.70;;;15.37;;
16037;SDS011;8123;50.906;6.172;2022-10-31T01:52:03;48.43;;;18.20;;
16037;SDS011;8123;50.906;6.172;2022-10-31T01:54:45;35.83;;;19.43;;
16037;SDS011;8123;50.906;6.172;2022-10-31T01:57:15;34.00;;;19.23;;
16037;SDS011;8123;50.906;6.172;2022-10-31T01:59:46;43.47;;;20.50;;
16037;SDS011;8123;50.906;6.172;2022-10-31T02:02:15;39.63;;;17.47;;
16037;SDS011;8123;50.906;6.172;2022-10-31T02:04:43;57.50;;;19.87;;
16037;SDS011;8123;50.906;6.172;2022-10-31T02:07:12;42.80;;;21.30;;
16037;SDS011;8123;50.906;6.172;2022-10-31T02:09:41;47.17;;;20.47;;
16037;SDS011;8123;50.906;6.172;2022-10-31T02:12:09;40.80;;;20.10;;
16037;SDS011;8123;50.906;6.172;2022-10-31T02:14:35;36.40;;;19.47;;
16037;SDS011;8123;50.906;6.172;2022-10-31T02:17:02;58.80;;;20.07;;
16037;SDS011;8123;50.906;6.172;2022-10-31T02:20:15;36.83;;;21.33;;
16037;SDS011;8123;50.906;6.172;2022-10-31T02:30:58;41.03;;;19.70;;
16037;SDS011;8123;50.906;6.172;2022-10-31T02:33:44;35.60;;;18.97;;
16037;SDS011;8123;50.906;6.172;2022-10-31T02:36:36;40.50;;;20.83;;
16037;SDS011;8123;50.906;6.172;2022-10-31T02:39:18;41.60;;;18.83;;
16037;SDS011;8123;50.906;6.172;2022-10-31T02:41:56;59.20;;;21.17;;
16037;SDS011;8123;50.906;6.172;2022-10-31T02:49:35;38.93;;;19.00;;
16037;SDS011;8123;50.906;6.172;2022-10-31T02:52:18;43.97;;;19.00;;
16037;SDS011;8123;50.906;6.172;2022-10-31T02:54:44;40.63;;;20.60;;
16037;SDS011;8123;50.906;6.172;2022-10-31T02:57:11;36.47;;;18.97;;
16037;SDS011;8123;50.906;6.172;2022-10-31T02:59:39;41.33;;;17.90;;
16037;SDS011;8123;50.906;6.172;2022-10-31T03:07:28;44.93;;;19.67;;
16037;SDS011;8123;50.906;6.172;2022-10-31T03:11:15;42.77;;;18.50;;
16037;SDS011;8123;50.906;6.172;2022-10-31T03:15:51;44.27;;;20.07;;
16037;SDS011;8123;50.906;6.172;2022-10-31T03:18:28;34.33;;;20.13;;
16037;SDS011;8123;50.906;6.172;2022-10-31T03:21:13;45.40;;;19.10;;
16037;SDS011;8123;50.906;6.172;2022-10-31T03:23:44;44.37;;;18.87;;
16037;SDS011;8123;50.906;6.172;2022-10-31T03:26:11;39.90;;;19.30;;
16037;SDS011;8123;50.906;6.172;2022-10-31T03:28:46;30.17;;;17.20;;
16037;SDS011;8123;50.906;6.172;2022-10-31T03:31:17;28.33;;;17.77;;
16037;SDS011;8123;50.906;6.172;2022-10-31T03:33:44;43.30;;;18.17;;
16037;SDS011;8123;50.906;6.172;2022-10-31T03:36:13;42.53;;;17.73;;
16037;SDS011;8123;50.906;6.172;2022-10-31T03:38:40;35.10;;;17.27;;
16037;SDS011;8123;50.906;6.172;2022-10-31T03:41:07;37.70;;;19.00;;
16037;SDS011;8123;50.906;6.172;2022-10-31T03:43:40;33.63;;;18.13;;
16037;SDS011;8123;50.906;6.172;2022-10-31T03:46:11;37.03;;;17.50;;
16037;SDS011;8123;50.906;6.172;2022-10-31T03:48:37;36.40;;;17.77;;
16037;SDS011;8123;50.906;6.172;2022-10-31T03:53:38;34.20;;;15.87;;
16037;SDS011;8123;50.906;6.172;2022-10-31T03:56:10;36.83;;;16.67;;
16037;SDS011;8123;50.906;6.172;2022-10-31T03:58:58;27.97;;;14.93;;
16037;SDS011;8123;50.906;6.172;2022-10-31T04:01:44;28.47;;;15.17;;
16037;SDS011;8123;50.906;6.172;2022-10-31T04:04:12;29.27;;;15.43;;
16037;SDS011;8123;50.906;6.172;2022-10-31T04:06:39;35.53;;;16.57;;
16037;SDS011;8123;50.906;6.172;2022-10-31T04:09:08;34.23;;;17.57;;
16037;SDS011;8123;50.906;6.172;2022-10-31T04:11:36;32.20;;;15.47;;
16037;SDS011;8123;50.906;6.172;2022-10-31T04:14:07;26.63;;;15.50;;
16037;SDS011;8123;50.906;6.172;2022-10-31T04:16:34;37.57;;;16.87;;
16037;SDS011;8123;50.906;6.172;2022-10-31T04:18:59;32.17;;;15.20;;
16037;SDS011;8123;50.906;6.172;2022-10-31T04:21:28;41.40;;;16.10;;
16037;SDS011;8123;50.906;6.172;2022-10-31T04:23:55;26.40;;;14.10;;
16037;SDS011;8123;50.906;6.172;2022-10-31T04:26:21;30.40;;;14.10;;
16037;SDS011;8123;50.906;6.172;2022-10-31T04:28:47;35.93;;;15.93;;
16037;SDS011;8123;50.906;6.172;2022-10-31T04:31:12;28.90;;;13.40;;
16037;SDS011;8123;50.906;6.172;2022-10-31T04:33:39;35.67;;;15.40;;
16037;SDS011;8123;50.906;6.172;2022-10-31T04:36:05;25.70;;;13.77;;
16037;SDS011;8123;50.906;6.172;2022-10-31T04:38:30;30.53;;;13.93;;
16037;SDS011;8123;50.906;6.172;2022-10-31T04:40:56;23.93;;;14.63;;
16037;SDS011;8123;50.906;6.172;2022-10-31T04:43:22;27.73;;;14.33;;
16037;SDS011;8123;50.906;6.172;2022-10-31T04:45:48;27.97;;;13.17;;
16037;SDS011;8123;50.906;6.172;2022-10-31T04:48:14;22.00;;;12.43;;
16037;SDS011;8123;50.906;6.172;2022-10-31T04:50:39;33.93;;;14.83;;
16037;SDS011;8123;50.906;6.172;2022-10-31T04:53:05;31.80;;;12.97;;
16037;SDS011;8123;50.906;6.172;2022-10-31T04:55:31;24.17;;;12.27;;
16037;SDS011;8123;50.906;6.172;2022-10-31T04:57:57;31.80;;;12.47;;
16037;SDS011;8123;50.906;6.172;2022-10-31T05:00:23;28.93;;;13.30;;
16037;SDS011;8123;50.906;6.172;2022-10-31T05:02:50;61.43;;;15.03;;
16037;SDS011;8123;50.906;6.172;2022-10-31T05:05:22;26.43;;;13.77;;
16037;SDS011;8123;50.906;6.172;2022-10-31T05:07:49;27.07;;;12.63;;
16037;SDS011;8123;50.906;6.172;2022-10-31T05:10:17;29.20;;;13.10;;
16037;SDS011;8123;50.906;6.172;2022-10-31T05:15:14;27.17;;;12.50;;
16037;SDS011;8123;50.906;6.172;2022-10-31T05:17:40;40.23;;;12.67;;
16037;SDS011;8123;50.906;6.172;2022-10-31T05:20:06;23.10;;;12.70;;
16037;SDS011;8123;50.906;6.172;2022-10-31T05:22:32;31.77;;;14.43;;
16037;SDS011;8123;50.906;6.172;2022-10-31T05:24:58;31.93;;;13.87;;
16037;SDS011;8123;50.906;6.172;2022-10-31T05:27:23;30.37;;;13.67;;
16037;SDS011;8123;50.906;6.172;2022-10-31T05:29:49;47.60;;;13.50;;
16037;SDS011;8123;50.906;6.172;2022-10-31T05:32:14;29.40;;;12.60;;
16037;SDS011;8123;50.906;6.172;2022-10-31T05:34:40;35.00;;;13.77;;
16037;SDS011;8123;50.906;6.172;2022-10-31T05:37:06;36.10;;;13.90;;
16037;SDS011;8123;50.906;6.172;2022-10-31T05:39:31;34.43;;;14.23;;
16037;SDS011;8123;50.906;6.172;2022-10-31T05:41:57;33.57;;;14.67;;
16037;SDS011;8123;50.906;6.172;2022-10-31T05:44:23;31.30;;;13.57;;
16037;SDS011;8123;50.906;6.172;2022-10-31T05:46:48;37.53;;;13.70;;
16037;SDS011;8123;50.906;6.172;2022-10-31T05:49:14;32.87;;;12.07;;
16037;SDS011;8123;50.906;6.172;2022-10-31T05:51:39;21.37;;;11.53;;
16037;SDS011;8123;50.906;6.172;2022-10-31T05:54:05;27.47;;;12.27;;
16037;SDS011;8123;50.906;6.172;2022-10-31T05:56:31;28.10;;;11.70;;
16037;SDS011;8123;50.906;6.172;2022-10-31T05:58:56;29.90;;;11.60;;
16037;SDS011;8123;50.906;6.172;2022-10-31T06:01:22;32.90;;;12.77;;
16037;SDS011;8123;50.906;6.172;2022-10-31T06:03:47;37.17;;;10.60;;
16037;SDS011;8123;50.906;6.172;2022-10-31T06:06:13;35.30;;;11.90;;
16037;SDS011;8123;50.906;6.172;2022-10-31T06:08:39;25.60;;;12.00;;
16037;SDS011;8123;50.906;6.172;2022-10-31T06:11:05;27.40;;;11.90;;
16037;SDS011;8123;50.906;6.172;2022-10-31T06:13:31;30.83;;;12.27;;
16037;SDS011;8123;50.906;6.172;2022-10-31T06:15:56;30.03;;;12.50;;
16037;SDS011;8123;50.906;6.172;2022-10-31T06:18:22;28.63;;;13.90;;
16037;SDS011;8123;50.906;6.172;2022-10-31T06:20:47;40.33;;;12.87;;
16037;SDS011;8123;50.906;6.172;2022-10-31T06:23:13;30.90;;;13.17;;
16037;SDS011;8123;50.906;6.172;2022-10-31T06:25:38;33.67;;;12.33;;
16037;SDS011;8123;50.906;6.172;2022-10-31T06:28:04;36.13;;;13.20;;
16037;SDS011;8123;50.906;6.172;2022-10-31T06:30:30;24.93;;;12.63;;
16037;SDS011;8123;50.906;6.172;2022-10-31T06:33:01;26.80;;;12.60;;
16037;SDS011;8123;50.906;6.172;2022-10-31T06:35:30;22.13;;;11.77;;
16037;SDS011;8123;50.906;6.172;2022-10-31T06:37:56;26.70;;;11.87;;
16037;SDS011;8123;50.906;6.172;2022-10-31T06:40:22;26.27;;;12.83;;
16037;SDS011;8123;50.906;6.172;2022-10-31T06:42:55;28.97;;;12.37;;
16037;SDS011;8123;50.906;6.172;2022-10-31T06:45:22;31.40;;;11.73;;
16037;SDS011;8123;50.906;6.172;2022-10-31T06:47:51;30.50;;;12.40;;
16037;SDS011;8123;50.906;6.172;2022-10-31T06:50:20;32.60;;;13.10;;
16037;SDS011;8123;50.906;6.172;2022-10-31T06:52:51;33.23;;;13.97;;
16037;SDS011;8123;50.906;6.172;2022-10-31T06:55:21;30.50;;;13.27;;
16037;SDS011;8123;50.906;6.172;2022-10-31T06:57:57;29.83;;;13.40;;
16037;SDS011;8123;50.906;6.172;2022-10-31T07:00:24;32.63;;;14.10;;
16037;SDS011;8123;50.906;6.172;2022-10-31T07:03:02;29.60;;;14.33;;
16037;SDS011;8123;50.906;6.172;2022-10-31T07:05:29;37.60;;;13.37;;
16037;SDS011;8123;50.906;6.172;2022-10-31T07:07:56;36.23;;;14.30;;
16037;SDS011;8123;50.906;6.172;2022-10-31T07:10:27;31.43;;;14.30;;
16037;SDS011;8123;50.906;6.172;2022-10-31T07:12:56;29.63;;;14.97;;
16037;SDS011;8123;50.906;6.172;2022-10-31T07:15:24;34.83;;;12.30;;
16037;SDS011;8123;50.906;6.172;2022-10-31T07:17:51;36.90;;;14.47;;
16037;SDS011;8123;50.906;6.172;2022-10-31T07:20:17;42.23;;;15.13;;
16037;SDS011;8123;50.906;6.172;2022-10-31T07:22:43;44.00;;;15.43;;
16037;SDS011;8123;50.906;6.172;2022-10-31T07:25:09;28.00;;;13.80;;
16037;SDS011;8123;50.906;6.172;2022-10-31T07:27:36;24.03;;;14.70;;
16037;SDS011;8123;50.906;6.172;2022-10-31T07:30:06;38.73;;;15.00;;
16037;SDS011;8123;50.906;6.172;2022-10-31T07:32:40;47.17;;;13.50;;
16037;SDS011;8123;50.906;6.172;2022-10-31T07:35:11;43.60;;;13.87;;
16037;SDS011;8123;50.906;6.172;2022-10-31T07:37:38;31.33;;;14.90;;
16037;SDS011;8123;50.906;6.172;2022-10-31T07:40:04;45.87;;;15.10;;
16037;SDS011;8123;50.906;6.172;2022-10-31T07:42:35;36.53;;;16.00;;
16037;SDS011;8123;50.906;6.172;2022-10-31T07:45:05;30.40;;;14.30;;
16037;SDS011;8123;50.906;6.172;2022-10-31T07:47:42;45.57;;;15.57;;
16037;SDS011;8123;50.906;6.172;2022-10-31T07:50:13;31.73;;;13.53;;
16037;SDS011;8123;50.906;6.172;2022-10-31T07:52:42;35.43;;;14.30;;
16037;SDS011;8123;50.906;6.172;2022-10-31T07:55:08;50.20;;;14.77;;
16037;SDS011;8123;50.906;6.172;2022-10-31T07:57:34;41.23;;;15.57;;
16037;SDS011;8123;50.906;6.172;2022-10-31T08:00:02;45.43;;;15.60;;
16037;SDS011;8123;50.906;6.172;2022-10-31T08:02:32;40.07;;;14.73;;
16037;SDS011;8123;50.906;6.172;2022-10-31T08:04:58;37.33;;;14.87;;
16037;SDS011;8123;50.906;6.172;2022-10-31T08:07:25;32.33;;;15.87;;
16037;SDS011;8123;50.906;6.172;2022-10-31T08:09:51;35.67;;;15.00;;
16037;SDS011;8123;50.906;6.172;2022-10-31T08:12:17;33.50;;;15.77;;
16037;SDS011;8123;50.906;6.172;2022-10-31T08:14:43;44.90;;;16.20;;
16037;SDS011;8123;50.906;6.172;2022-10-31T08:17:09;41.07;;;16.10;;
16037;SDS011;8123;50.906;6.172;2022-10-31T08:19:35;43.73;;;16.93;;
16037;SDS011;8123;50.906;6.172;2022-10-31T08:22:01;39.50;;;15.90;;
16037;SDS011;8123;50.906;6.172;2022-10-31T08:24:26;47.87;;;18.70;;
16037;SDS011;8123;50.906;6.172;2022-10-31T08:26:52;49.70;;;18.97;;
16037;SDS011;8123;50.906;6.172;2022-10-31T08:29:18;58.63;;;19.13;;
16037;SDS011;8123;50.906;6.172;2022-10-31T08:31:43;38.60;;;17.70;;
16037;SDS011;8123;50.906;6.172;2022-10-31T08:34:09;53.67;;;20.17;;
16037;SDS011;8123;50.906;6.172;2022-10-31T08:36:35;45.20;;;20.00;;
16037;SDS011;8123;50.906;6.172;2022-10-31T08:39:00;59.23;;;20.03;;
16037;SDS011;8123;50.906;6.172;2022-10-31T08:41:27;40.37;;;19.17;;
16037;SDS011;8123;50.906;6.172;2022-10-31T08:43:53;43.73;;;20.97;;
16037;SDS011;8123;50.906;6.172;2022-10-31T08:46:19;67.90;;;20.70;;
16037;SDS011;8123;50.906;6.172;2022-10-31T08:48:44;54.70;;;21.10;;
16037;SDS011;8123;50.906;6.172;2022-10-31T08:51:12;46.30;;;21.00;;
16037;SDS011;8123;50.906;6.172;2022-10-31T08:53:38;68.53;;;23.57;;
16037;SDS011;8123;50.906;6.172;2022-10-31T08:56:04;67.70;;;24.67;;
16037;SDS011;8123;50.906;6.172;2022-10-31T08:58:29;66.90;;;23.30;;
16037;SDS011;8123;50.906;6.172;2022-10-31T09:00:55;70.60;;;24.37;;
16037;SDS011;8123;50.906;6.172;2022-10-31T09:03:22;56.43;;;24.27;;
16037;SDS011;8123;50.906;6.172;2022-10-31T09:05:49;59.27;;;24.93;;
16037;SDS011;8123;50.906;6.172;2022-10-31T09:08:15;78.37;;;26.97;;
16037;SDS011;8123;50.906;6.172;2022-10-31T09:10:41;66.30;;;25.80;;
16037;SDS011;8123;50.906;6.172;2022-10-31T09:13:11;67.90;;;24.70;;
16037;SDS011;8123;50.906;6.172;2022-10-31T09:15:43;73.77;;;24.53;;
16037;SDS011;8123;50.906;6.172;2022-10-31T09:18:10;57.70;;;24.27;;
16037;SDS011;8123;50.906;6.172;2022-10-31T09:20:37;56.13;;;24.33;;
16037;SDS011;8123;50.906;6.172;2022-10-31T09:23:08;62.83;;;25.07;;
16037;SDS011;8123;50.906;6.172;2022-10-31T09:25:36;62.10;;;25.03;;
16037;SDS011;8123;50.906;6.172;2022-10-31T09:28:03;65.83;;;25.20;;
16037;SDS011;8123;50.906;6.172;2022-10-31T09:30:30;69.70;;;23.90;;
16037;SDS011;8123;50.906;6.172;2022-10-31T09:32:57;45.30;;;23.30;;
16037;SDS011;8123;50.906;6.172;2022-10-31T09:35:24;55.57;;;23.90;;
16037;SDS011;8123;50.906;6.172;2022-10-31T09:37:55;50.30;;;22.83;;
16037;SDS011;8123;50.906;6.172;2022-10-31T09:40:22;65.57;;;25.13;;
16037;SDS011;8123;50.906;6.172;2022-10-31T09:51:06;56.13;;;24.80;;
16037;SDS011;8123;50.906;6.172;2022-10-31T09:53:50;59.00;;;30.20;;
16037;SDS011;8123;50.906;6.172;2022-10-31T09:56:22;49.60;;;23.63;;
16037;SDS011;8123;50.906;6.172;2022-10-31T09:58:59;96.50;;;36.27;;
16037;SDS011;8123;50.906;6.172;2022-10-31T10:04:30;55.20;;;25.10;;
16037;SDS011;8123;50.906;6.172;2022-10-31T10:07:16;66.17;;;24.77;;
16037;SDS011;8123;50.906;6.172;2022-10-31T10:10:15;45.70;;;22.00;;
16037;SDS011;8123;50.906;6.172;2022-10-31T10:20:37;51.40;;;21.50;;
16037;SDS011;8123;50.906;6.172;2022-10-31T10:26:06;39.00;;;20.27;;
16037;SDS011;8123;50.906;6.172;2022-10-31T10:28:41;41.40;;;21.13;;
16037;SDS011;8123;50.906;6.172;2022-10-31T10:36:58;46.20;;;19.33;;
16037;SDS011;8123;50.906;6.172;2022-10-31T10:39:30;45.10;;;19.87;;
16037;SDS011;8123;50.906;6.172;2022-10-31T10:41:57;38.03;;;20.47;;
16037;SDS011;8123;50.906;6.172;2022-10-31T10:44:46;45.00;;;18.60;;
16037;SDS011;8123;50.906;6.172;2022-10-31T10:47:37;36.47;;;18.20;;
16037;SDS011;8123;50.906;6.172;2022-10-31T10:50:16;50.90;;;18.80;;
16037;SDS011;8123;50.906;6.172;2022-10-31T10:53:12;59.73;;;21.20;;
16037;SDS011;8123;50.906;6.172;2022-10-31T10:56:02;45.07;;;17.33;;
16037;SDS011;8123;50.906;6.172;2022-10-31T10:58:29;52.30;;;19.00;;
16037;SDS011;8123;50.906;6.172;2022-10-31T11:00:55;42.80;;;18.70;;
16037;SDS011;8123;50.906;6.172;2022-10-31T11:03:21;46.50;;;19.27;;
16037;SDS011;8123;50.906;6.172;2022-10-31T11:05:47;40.00;;;18.00;;
16037;SDS011;8123;50.906;6.172;2022-10-31T11:08:23;59.87;;;20.63;;
16037;SDS011;8123;50.906;6.172;2022-10-31T11:13:42;55.17;;;19.00;;
16037;SDS011;8123;50.906;6.172;2022-10-31T11:16:11;39.97;;;17.83;;
16037;SDS011;8123;50.906;6.172;2022-10-31T11:18:45;50.63;;;18.87;;
16037;SDS011;8123;50.906;6.172;2022-10-31T11:21:23;29.53;;;16.50;;
16037;SDS011;8123;50.906;6.172;2022-10-31T11:26:36;37.03;;;17.00;;
16037;SDS011;8123;50.906;6.172;2022-10-31T11:29:04;37.43;;;16.00;;
16037;SDS011;8123;50.906;6.172;2022-10-31T11:31:36;39.03;;;15.07;;
16037;SDS011;8123;50.906;6.172;2022-10-31T11:34:03;44.00;;;15.73;;
16037;SDS011;8123;50.906;6.172;2022-10-31T11:38:57;39.37;;;14.10;;
16037;SDS011;8123;50.906;6.172;2022-10-31T11:46:47;23.03;;;12.27;;
16037;SDS011;8123;50.906;6.172;2022-10-31T11:49:20;37.20;;;12.50;;
16037;SDS011;8123;50.906;6.172;2022-10-31T11:51:55;24.50;;;11.20;;
16037;SDS011;8123;50.906;6.172;2022-10-31T11:54:25;31.43;;;11.87;;
16037;SDS011;8123;50.906;6.172;2022-10-31T11:56:54;47.00;;;11.53;;
16037;SDS011;8123;50.906;6.172;2022-10-31T11:59:27;21.67;;;10.07;;
16037;SDS011;8123;50.906;6.172;2022-10-31T12:01:55;20.53;;;9.37;;
16037;SDS011;8123;50.906;6.172;2022-10-31T12:04:24;28.43;;;10.37;;
16037;SDS011;8123;50.906;6.172;2022-10-31T12:06:59;22.33;;;10.80;;
16037;SDS011;8123;50.906;6.172;2022-10-31T12:09:28;32.90;;;12.30;;
16037;SDS011;8123;50.906;6.172;2022-10-31T12:20:05;24.27;;;12.00;;
16037;SDS011;8123;50.906;6.172;2022-10-31T12:25:48;36.17;;;14.80;;
16037;SDS011;8123;50.906;6.172;2022-10-31T12:34:33;27.00;;;13.40;;
16037;SDS011;8123;50.906;6.172;2022-10-31T12:37:49;30.40;;;12.53;;
16037;SDS011;8123;50.906;6.172;2022-10-31T12:40:48;24.47;;;11.97;;
16037;SDS011;8123;50.906;6.172;2022-10-31T12:43:35;27.70;;;11.63;;
16037;SDS011;8123;50.906;6.172;2022-10-31T12:52:08;29.60;;;11.27;;
16037;SDS011;8123;50.906;6.172;2022-10-31T12:57:38;30.00;;;10.63;;
16037;SDS011;8123;50.906;6.172;2022-10-31T13:00:18;25.00;;;9.47;;
16037;SDS011;8123;50.906;6.172;2022-10-31T13:05:25;29.27;;;10.37;;
16037;SDS011;8123;50.906;6.172;2022-10-31T13:10:39;28.13;;;9.27;;
16037;SDS011;8123;50.906;6.172;2022-10-31T13:15:56;24.57;;;10.60;;
16037;SDS011;8123;50.906;6.172;2022-10-31T13:18:32;21.90;;;9.63;;
16037;SDS011;8123;50.906;6.172;2022-10-31T13:21:05;33.77;;;10.63;;
16037;SDS011;8123;50.906;6.172;2022-10-31T13:23:36;20.70;;;8.87;;
16037;SDS011;8123;50.906;6.172;2022-10-31T13:26:09;26.23;;;9.57;;
16037;SDS011;8123;50.906;6.172;2022-10-31T13:28:46;17.57;;;7.93;;
16037;SDS011;8123;50.906;6.172;2022-10-31T13:31:13;28.17;;;9.37;;
16037;SDS011;8123;50.906;6.172;2022-10-31T13:33:40;28.33;;;8.60;;
16037;SDS011;8123;50.906;6.172;2022-10-31T13:36:31;21.40;;;7.80;;
16037;SDS011;8123;50.906;6.172;2022-10-31T13:41:48;24.00;;;8.97;;
16037;SDS011;8123;50.906;6.172;2022-10-31T13:46:49;28.57;;;7.97;;
16037;SDS011;8123;50.906;6.172;2022-10-31T13:51:53;22.60;;;8.00;;
16037;SDS011;8123;50.906;6.172;2022-10-31T13:54:40;29.13;;;7.50;;
16037;SDS011;8123;50.906;6.172;2022-10-31T13:57:18;21.53;;;7.47;;
16037;SDS011;8123;50.906;6.172;2022-10-31T13:59:51;25.90;;;6.80;;
16037;SDS011;8123;50.906;6.172;2022-10-31T14:02:34;21.50;;;6.17;;
16037;SDS011;8123;50.906;6.172;2022-10-31T14:05:05;24.87;;;7.80;;
16037;SDS011;8123;50.906;6.172;2022-10-31T14:07:44;38.23;;;7.77;;
16037;SDS011;8123;50.906;6.172;2022-10-31T14:13:09;22.93;;;7.90;;
16037;SDS011;8123;50.906;6.172;2022-10-31T14:15:51;25.83;;;7.10;;
16037;SDS011;8123;50.906;6.172;2022-10-31T14:18:33;17.03;;;7.40;;
16037;SDS011;8123;50.906;6.172;2022-10-31T14:21:02;12.03;;;6.67;;
16037;SDS011;8123;50.906;6.172;2022-10-31T14:23:51;15.03;;;8.10;;
16037;SDS011;8123;50.906;6.172;2022-10-31T14:28:54;19.40;;;7.67;;
16037;SDS011;8123;50.906;6.172;2022-10-31T14:34:27;20.13;;;7.40;;
16037;SDS011;8123;50.906;6.172;2022-10-31T14:39:37;25.47;;;7.70;;
16037;SDS011;8123;50.906;6.172;2022-10-31T14:42:12;25.53;;;9.13;;
16037;SDS011;8123;50.906;6.172;2022-10-31T14:45:04;16.20;;;7.60;;
16037;SDS011;8123;50.906;6.172;2022-10-31T14:52:56;44.97;;;8.87;;
16037;SDS011;8123;50.906;6.172;2022-10-31T14:55:24;34.77;;;9.50;;
16037;SDS011;8123;50.906;6.172;2022-10-31T14:58:01;19.00;;;7.50;;
16037;SDS011;8123;50.906;6.172;2022-10-31T15:00:31;19.13;;;7.23;;
16037;SDS011;8123;50.906;6.172;2022-10-31T15:03:04;23.23;;;7.40;;
16037;SDS011;8123;50.906;6.172;2022-10-31T15:06:13;18.97;;;7.77;;
16037;SDS011;8123;50.906;6.172;2022-10-31T15:08:45;19.57;;;7.93;;
16037;SDS011;8123;50.906;6.172;2022-10-31T15:11:21;17.70;;;7.47;;
16037;SDS011;8123;50.906;6.172;2022-10-31T15:13:50;15.03;;;7.03;;
16037;SDS011;8123;50.906;6.172;2022-10-31T15:16:19;14.60;;;6.80;;
16037;SDS011;8123;50.906;6.172;2022-10-31T15:18:48;16.43;;;6.60;;
16037;SDS011;8123;50.906;6.172;2022-10-31T15:21:18;26.87;;;7.13;;
16037;SDS011;8123;50.906;6.172;2022-10-31T15:23:46;21.10;;;6.00;;
16037;SDS011;8123;50.906;6.172;2022-10-31T15:26:17;13.00;;;6.87;;
16037;SDS011;8123;50.906;6.172;2022-10-31T15:28:45;19.50;;;7.37;;
16037;SDS011;8123;50.906;6.172;2022-10-31T15:31:21;21.33;;;6.50;;
16037;SDS011;8123;50.906;6.172;2022-10-31T15:33:47;19.17;;;7.50;;
16037;SDS011;8123;50.906;6.172;2022-10-31T15:36:22;18.53;;;7.13;;
16037;SDS011;8123;50.906;6.172;2022-10-31T15:38:49;15.90;;;7.30;;
16037;SDS011;8123;50.906;6.172;2022-10-31T15:41:23;14.80;;;7.03;;
16037;SDS011;8123;50.906;6.172;2022-10-31T15:44:21;23.70;;;9.10;;
16037;SDS011;8123;50.906;6.172;2022-10-31T15:47:03;21.97;;;7.83;;
16037;SDS011;8123;50.906;6.172;2022-10-31T15:49:40;20.13;;;6.90;;
16037;SDS011;8123;50.906;6.172;2022-10-31T15:52:15;17.50;;;7.70;;
16037;SDS011;8123;50.906;6.172;2022-10-31T15:54:53;18.90;;;8.13;;
16037;SDS011;8123;50.906;6.172;2022-10-31T15:57:24;17.30;;;7.63;;
16037;SDS011;8123;50.906;6.172;2022-10-31T16:03:08;25.03;;;8.63;;
16037;SDS011;8123;50.906;6.172;2022-10-31T16:05:45;20.10;;;9.00;;
16037;SDS011;8123;50.906;6.172;2022-10-31T16:13:28;24.73;;;9.97;;
16037;SDS011;8123;50.906;6.172;2022-10-31T16:16:00;18.00;;;9.03;;
16037;SDS011;8123;50.906;6.172;2022-10-31T16:18:28;31.73;;;8.20;;
16037;SDS011;8123;50.906;6.172;2022-10-31T16:20:59;23.53;;;7.70;;
16037;SDS011;8123;50.906;6.172;2022-10-31T16:23:25;22.60;;;8.70;;
16037;SDS011;8123;50.906;6.172;2022-10-31T16:25:52;25.70;;;10.03;;
16037;SDS011;8123;50.906;6.172;2022-10-31T16:28:22;25.83;;;10.13;;
16037;SDS011;8123;50.906;6.172;2022-10-31T16:30:52;15.30;;;9.10;;
16037;SDS011;8123;50.906;6.172;2022-10-31T16:33:20;17.10;;;8.70;;
16037;SDS011;8123;50.906;6.172;2022-10-31T16:35:53;17.07;;;7.90;;
16037;SDS011;8123;50.906;6.172;2022-10-31T16:38:23;18.10;;;9.47;;
16037;SDS011;8123;50.906;6.172;2022-10-31T16:40:49;42.97;;;9.97;;
16037;SDS011;8123;50.906;6.172;2022-10-31T16:43:16;19.27;;;8.40;;
16037;SDS011;8123;50.906;6.172;2022-10-31T16:45:47;20.77;;;8.27;;
16037;SDS011;8123;50.906;6.172;2022-10-31T16:48:16;16.33;;;8.40;;
16037;SDS011;8123;50.906;6.172;2022-10-31T16:50:46;30.47;;;8.70;;
16037;SDS011;8123;50.906;6.172;2022-10-31T16:53:13;24.43;;;9.23;;
16037;SDS011;8123;50.906;6.172;2022-10-31T16:55:58;27.13;;;8.63;;
16037;SDS011;8123;50.906;6.172;2022-10-31T16:58:30;21.63;;;8.00;;
16037;SDS011;8123;50.906;6.172;2022-10-31T17:00:58;17.40;;;8.60;;
16037;SDS011;8123;50.906;6.172;2022-10-31T17:03:29;22.87;;;9.23;;
16037;SDS011;8123;50.906;6.172;2022-10-31T17:05:55;16.20;;;9.20;;
16037;SDS011;8123;50.906;6.172;2022-10-31T17:08:21;23.90;;;8.13;;
16037;SDS011;8123;50.906;6.172;2022-10-31T17:10:50;23.77;;;9.20;;
16037;SDS011;8123;50.906;6.172;2022-10-31T17:13:18;30.37;;;8.50;;
16037;SDS011;8123;50.906;6.172;2022-10-31T17:15:47;22.40;;;8.40;;
16037;SDS011;8123;50.906;6.172;2022-10-31T17:18:16;24.23;;;9.43;;